EFHK/HEL METAR and TAF weather

Enter ICAO airport designator
Station Type Date Time Source
EFHK METAR 2022/05/24 12:20 UTC NOAA

EFHK 241220Z 16011KT CAVOK 20/M00 Q1013 NOSIG


Station Type Date Time Source
EFHK Decoded METAR 2022/05/24 12:20 UTC NOAA

Helsinki-Vantaa, Finland (EFHK) 60-19N 024-58E 56M
May 24, 2022 - 08:20 AM EDT / 2022.05.24 1220 UTC
Wind: from the SSE (160 degrees) at 13 MPH (11 KT):0
Visibility: greater than 7 mile(s):0
Temperature: 68 F (20 C)
Dew Point: 32 F (0 C)
Relative Humidity: 26%
Pressure (altimeter): 29.91 in. Hg (1013 hPa)
ob: EFHK 241220Z 16011KT CAVOK 20/M00 Q1013 NOSIG
cycle: 12

Station Type Date Time Source
EFHK TAF 2022/05/24 12:43 UTC NOAA

TAF EFHK 241132Z 2412/2512 18010KT CAVOK
BECMG 2419/2421 VRB02KT
BECMG 2508/2510 12010KT

Example: see airport list